Port Everglades, Florida
Current Conditions -  °F | °C
As of 12:53 AM on Thursday 23 Oct 2014 (Local Time) from KFLL Reporting Station
Broken Clouds Broken Clouds  
Wind Chill: 76°   Ceiling: 4300
Heat Index: 76°   Visibility: 10mi
Dew Point: 71°   Wind: 0mph
Humidity: 85%   Direction: NA
Pressure: 29.92"   Gusts: NA
Location:  26.0999°N, 80.132°W
Report Text: KFLL 230453Z 00000KT 10SM SCT023 BKN043 BKN065 24/22 A2992 RMK AO2 SLP132 T02440217 402890233
Loading
Personal Weather Stations






























Interactive Weather Map
Tropical Storm Tracking
New forecast layout! Learn more

10-Day Weather Forecast

Advertisements
Track Severe Weather on mobile